createdAt,value
2019-04-21T00:00:45.676Z,10.00
2019-04-21T00:01:48.778Z,9.60
2019-04-21T00:02:47.619Z,9.20
2019-04-21T00:03:51.288Z,9.60
2019-04-21T00:04:56.896Z,10.40
2019-04-21T00:06:03.037Z,10.40
2019-04-21T00:07:05.817Z,10.20
2019-04-21T00:08:15.095Z,12.50
2019-04-21T00:09:11.496Z,11.60
2019-04-21T00:10:07.662Z,11.20
2019-04-21T00:11:09.747Z,9.90
2019-04-21T00:12:01.482Z,10.00
2019-04-21T00:12:57.382Z,10.60
2019-04-21T00:13:56.392Z,11.10
2019-04-21T00:14:54.845Z,9.20
2019-04-21T00:15:53.457Z,10.10
2019-04-21T00:16:53.911Z,9.50
2019-04-21T00:17:49.876Z,10.00
2019-04-21T00:18:53.507Z,9.50
2019-04-21T00:19:45.859Z,9.10
2019-04-21T00:20:49.694Z,10.10
2019-04-21T00:21:51.145Z,9.40
2019-04-21T00:22:58.585Z,10.40
2019-04-21T00:24:01.815Z,8.80
2019-04-21T00:24:56.913Z,8.30
2019-04-21T00:25:57.632Z,10.20
2019-04-21T00:27:09.691Z,9.40
2019-04-21T00:28:04.771Z,9.00
2019-04-21T00:29:09.180Z,9.30
2019-04-21T00:30:03.331Z,8.20
2019-04-21T00:31:00.570Z,8.40
2019-04-21T00:32:00.404Z,8.60
2019-04-21T00:32:54.107Z,11.20
2019-04-21T00:33:47.749Z,9.40
2019-04-21T00:34:53.517Z,10.30
2019-04-21T00:35:54.286Z,9.10
2019-04-21T00:36:56.105Z,9.20
2019-04-21T00:38:00.615Z,7.70
2019-04-21T00:39:17.085Z,8.80
2019-04-21T00:40:06.606Z,9.60
2019-04-21T00:41:08.876Z,8.80
2019-04-21T00:42:05.423Z,9.70
2019-04-21T00:43:03.560Z,10.10
2019-04-21T00:43:59.823Z,10.30
2019-04-21T00:44:58.583Z,7.80
2019-04-21T00:45:55.552Z,8.60
2019-04-21T00:46:55.801Z,9.10
2019-04-21T00:48:04.040Z,8.20
2019-04-21T00:49:03.127Z,8.00
2019-04-21T00:50:07.489Z,9.20
2019-04-21T00:51:18.420Z,8.60
2019-04-21T00:52:14.470Z,10.30
2019-04-21T00:53:04.657Z,8.20
2019-04-21T00:54:09.797Z,8.60
2019-04-21T00:55:14.252Z,9.10
2019-04-21T00:56:08.498Z,8.80
2019-04-21T00:57:10.591Z,9.10
2019-04-21T00:58:14.772Z,8.20
2019-04-21T00:59:11.731Z,9.20
2019-04-21T01:00:10.186Z,9.00
2019-04-21T01:01:01.947Z,8.40
2019-04-21T01:02:00.857Z,7.90
2019-04-21T01:03:12.636Z,8.60
2019-04-21T01:04:02.267Z,9.30
2019-04-21T01:05:10.845Z,8.70
2019-04-21T01:06:03.667Z,8.60
2019-04-21T01:07:07.268Z,9.50
2019-04-21T01:08:08.501Z,9.30
2019-04-21T01:09:06.360Z,8.20
2019-04-21T01:10:02.366Z,9.80
2019-04-21T01:10:56.955Z,9.30
2019-04-21T01:12:05.152Z,8.80
2019-04-21T01:13:14.374Z,8.70
2019-04-21T01:14:05.516Z,8.60
2019-04-21T01:15:11.023Z,9.90
2019-04-21T01:16:07.239Z,8.30
2019-04-21T01:17:11.127Z,8.60
2019-04-21T01:18:04.718Z,8.60
2019-04-21T01:19:05.121Z,8.20
2019-04-21T01:19:57.465Z,8.30
2019-04-21T01:20:43.433Z,8.30
2019-04-21T01:21:42.396Z,8.50
2019-04-21T01:22:42.382Z,7.80
2019-04-21T01:23:42.442Z,7.80
2019-04-21T01:24:46.797Z,8.50
2019-04-21T01:25:55.427Z,7.80
2019-04-21T01:26:55.641Z,8.00
2019-04-21T01:27:59.459Z,6.50
2019-04-21T01:29:01.280Z,7.80
2019-04-21T01:30:08.269Z,7.00
2019-04-21T01:31:07.491Z,7.20
2019-04-21T01:32:13.189Z,7.30
2019-04-21T01:33:08.188Z,8.50
2019-04-21T01:34:04.719Z,7.30
2019-04-21T01:35:06.740Z,7.30
2019-04-21T01:36:02.980Z,6.70
2019-04-21T01:36:59.896Z,7.00
2019-04-21T01:38:01.897Z,6.70
2019-04-21T01:39:11.936Z,6.90
2019-04-21T01:40:14.018Z,8.10
2019-04-21T01:41:07.063Z,7.50
2019-04-21T01:42:03.761Z,7.70
2019-04-21T01:43:04.796Z,7.50
2019-04-21T01:44:01.569Z,7.80
2019-04-21T01:45:05.528Z,7.30
2019-04-21T01:46:00.667Z,7.60
2019-04-21T01:46:58.237Z,7.90
2019-04-21T01:48:01.209Z,7.50
2019-04-21T01:49:53.310Z,7.80
2019-04-21T01:51:01.529Z,7.50
2019-04-21T01:52:15.174Z,7.60
2019-04-21T01:53:03.956Z,7.60
2019-04-21T01:54:07.665Z,8.40
2019-04-21T01:55:06.020Z,8.00
2019-04-21T01:56:04.817Z,7.50
2019-04-21T01:57:02.034Z,7.40
2019-04-21T01:57:58.962Z,7.60
2019-04-21T01:58:51.764Z,7.70
2019-04-21T01:59:54.895Z,8.40
2019-04-21T02:00:58.247Z,7.30
2019-04-21T02:02:05.135Z,8.40
2019-04-21T02:03:17.605Z,7.10
2019-04-21T02:03:59.667Z,7.60
2019-04-21T02:05:10.296Z,7.50
2019-04-21T02:05:59.970Z,7.90
2019-04-21T02:07:02.844Z,8.20
2019-04-21T02:08:00.774Z,8.30
2019-04-21T02:09:02.121Z,7.90
2019-04-21T02:10:05.125Z,7.90
2019-04-21T02:11:07.844Z,7.90
2019-04-21T02:12:06.843Z,8.10
2019-04-21T02:13:07.119Z,7.80
2019-04-21T02:14:09.960Z,8.50
2019-04-21T02:15:07.731Z,8.00
2019-04-21T02:16:08.809Z,8.50
2019-04-21T02:17:05.575Z,7.70
2019-04-21T02:18:07.024Z,7.80
2019-04-21T02:18:58.927Z,8.60
2019-04-21T02:19:55.237Z,7.40
2019-04-21T02:20:55.333Z,9.50
2019-04-21T02:21:54.300Z,7.60
2019-04-21T02:23:31.470Z,8.40
2019-04-21T02:25:08.621Z,7.40
2019-04-21T02:26:08.020Z,8.30
2019-04-21T02:27:09.881Z,8.10
2019-04-21T02:28:03.754Z,7.50
2019-04-21T02:29:08.546Z,7.80
2019-04-21T02:30:12.193Z,7.90
2019-04-21T02:31:24.802Z,7.70
2019-04-21T02:32:28.689Z,8.50
2019-04-21T02:33:26.070Z,8.00
2019-04-21T02:34:38.001Z,10.30
2019-04-21T02:35:25.585Z,7.70
2019-04-21T02:37:28.464Z,8.10
2019-04-21T02:40:17.484Z,8.80
2019-04-21T02:41:09.528Z,8.30
2019-04-21T02:42:31.640Z,8.90
2019-04-21T02:45:17.091Z,8.90
2019-04-21T02:46:16.704Z,8.00
2019-04-21T02:47:24.017Z,8.00
2019-04-21T02:48:19.306Z,7.10
2019-04-21T02:49:39.898Z,7.50
2019-04-21T02:50:19.134Z,7.10
2019-04-21T02:51:13.170Z,7.40
2019-04-21T02:53:21.132Z,7.80
2019-04-21T02:54:45.763Z,8.30
2019-04-21T02:55:07.789Z,7.40
2019-04-21T02:56:18.407Z,7.90
2019-04-21T02:57:19.043Z,7.10
2019-04-21T02:58:18.330Z,7.60
2019-04-21T02:59:15.313Z,7.70
2019-04-21T03:00:16.001Z,7.90
2019-04-21T03:01:23.572Z,7.10
2019-04-21T03:02:22.783Z,8.80
2019-04-21T03:03:13.277Z,7.20
2019-04-21T03:04:26.243Z,7.70
2019-04-21T03:06:08.690Z,8.70
2019-04-21T03:08:14.381Z,9.00
2019-04-21T03:09:18.573Z,8.80
2019-04-21T03:11:14.482Z,7.90
2019-04-21T03:13:21.619Z,8.00
2019-04-21T03:14:24.922Z,7.80
2019-04-21T03:15:28.969Z,8.90
2019-04-21T03:16:26.559Z,9.00
2019-04-21T03:17:15.200Z,9.50
2019-04-21T03:18:12.903Z,7.30
2019-04-21T03:19:20.390Z,8.30
2019-04-21T03:23:21.603Z,7.50
2019-04-21T03:24:33.207Z,8.40
2019-04-21T03:25:25.297Z,10.00
2019-04-21T03:27:28.582Z,8.40
2019-04-21T03:28:17.871Z,8.00
2019-04-21T03:29:30.976Z,8.70
2019-04-21T03:30:29.866Z,8.00
2019-04-21T03:31:34.677Z,8.20
2019-04-21T03:35:53.439Z,7.70
2019-04-21T03:37:16.930Z,9.30
2019-04-21T03:38:22.309Z,8.40
2019-04-21T03:39:07.791Z,8.40
2019-04-21T03:41:12.103Z,11.00
2019-04-21T03:42:19.594Z,9.60
2019-04-21T03:43:12.651Z,8.70
2019-04-21T03:44:17.087Z,8.80
2019-04-21T03:45:20.395Z,8.30
2019-04-21T03:46:16.380Z,7.80
2019-04-21T03:47:15.413Z,10.20
2019-04-21T03:48:17.212Z,8.00
2019-04-21T03:49:20.783Z,9.20
2019-04-21T03:50:12.806Z,9.40
2019-04-21T03:51:15.942Z,9.10
2019-04-21T03:52:27.808Z,8.80
2019-04-21T03:53:09.616Z,8.50
2019-04-21T03:54:13.705Z,9.00
2019-04-21T03:57:39.289Z,9.50
2019-04-21T03:59:09.630Z,9.50
2019-04-21T04:00:21.614Z,10.20
2019-04-21T04:02:14.892Z,8.80
2019-04-21T04:04:24.493Z,9.50
2019-04-21T04:05:23.389Z,10.00
2019-04-21T04:07:39.750Z,10.30
2019-04-21T04:08:22.475Z,9.40
2019-04-21T04:12:28.571Z,9.10
2019-04-21T04:13:20.384Z,8.90
2019-04-21T04:15:12.082Z,10.20
2019-04-21T04:18:23.428Z,8.60
2019-04-21T04:19:09.082Z,8.90
2019-04-21T04:20:13.809Z,9.10
2019-04-21T04:22:17.557Z,8.20
2019-04-21T04:23:08.162Z,14.80
2019-04-21T04:24:13.317Z,9.50
2019-04-21T04:25:15.602Z,8.90
2019-04-21T04:26:19.121Z,9.40
2019-04-21T04:27:22.557Z,9.20
2019-04-21T04:28:28.355Z,9.10
2019-04-21T04:29:12.518Z,8.30
2019-04-21T04:30:12.537Z,8.70
2019-04-21T04:31:20.396Z,8.80
2019-04-21T04:32:07.301Z,9.20
2019-04-21T04:33:22.641Z,8.60
2019-04-21T04:34:14.629Z,9.50
2019-04-21T04:35:11.869Z,9.40
2019-04-21T04:37:21.501Z,9.50
2019-04-21T04:38:20.165Z,8.70
2019-04-21T04:39:26.015Z,10.00
2019-04-21T04:40:13.354Z,10.60
2019-04-21T04:41:22.163Z,10.30
2019-04-21T04:43:14.691Z,11.20
2019-04-21T04:44:32.577Z,9.90
2019-04-21T04:45:28.257Z,10.40
2019-04-21T04:46:07.201Z,9.60
2019-04-21T04:47:20.278Z,10.50
2019-04-21T04:49:34.375Z,10.40
2019-04-21T04:49:59.494Z,10.80
2019-04-21T04:51:40.958Z,10.10
2019-04-21T04:52:30.158Z,9.40
2019-04-21T04:53:12.662Z,9.20
2019-04-21T04:54:05.818Z,11.70
2019-04-21T04:55:12.027Z,9.90
2019-04-21T04:56:12.453Z,9.30
2019-04-21T04:57:13.846Z,8.80
2019-04-21T04:58:07.143Z,9.30
2019-04-21T04:59:47.747Z,10.50
2019-04-21T05:00:19.859Z,8.80
2019-04-21T05:03:15.561Z,10.10
2019-04-21T05:05:14.079Z,10.00
2019-04-21T05:06:24.061Z,10.10
2019-04-21T05:07:13.872Z,10.30
2019-04-21T05:09:22.930Z,11.80
2019-04-21T05:10:11.690Z,10.50
2019-04-21T05:11:23.552Z,11.20
2019-04-21T05:12:05.958Z,10.80
2019-04-21T05:13:06.096Z,10.90
2019-04-21T05:14:21.533Z,11.50
2019-04-21T05:15:09.555Z,11.60
2019-04-21T05:16:21.762Z,11.00
2019-04-21T05:17:19.618Z,11.00
2019-04-21T05:18:13.589Z,10.00
2019-04-21T05:19:20.090Z,11.10
2019-04-21T05:20:11.619Z,11.70
2019-04-21T05:21:24.182Z,9.90
2019-04-21T05:22:12.155Z,10.60
2019-04-21T05:22:59.830Z,10.80
2019-04-21T05:23:55.887Z,13.00
2019-04-21T05:25:02.129Z,10.70
2019-04-21T05:25:54.428Z,10.90
2019-04-21T05:26:58.394Z,10.70
2019-04-21T05:27:57.772Z,11.20
2019-04-21T05:28:53.460Z,10.80
2019-04-21T05:30:15.299Z,10.90
2019-04-21T05:31:05.750Z,11.10
2019-04-21T05:32:04.584Z,11.80
2019-04-21T05:33:05.581Z,10.40
2019-04-21T05:34:03.064Z,11.10
2019-04-21T05:35:02.276Z,11.20
2019-04-21T05:36:07.667Z,11.10
2019-04-21T05:37:01.349Z,11.40
2019-04-21T05:38:03.039Z,12.60
2019-04-21T05:38:59.648Z,12.20
2019-04-21T05:39:57.468Z,13.20
2019-04-21T05:40:56.157Z,12.70
2019-04-21T05:41:49.670Z,14.70
2019-04-21T05:42:54.875Z,14.30
2019-04-21T05:44:07.652Z,12.90
2019-04-21T05:45:12.743Z,14.80
2019-04-21T05:46:22.598Z,15.20
2019-04-21T05:47:15.956Z,14.10
2019-04-21T05:48:15.906Z,14.80
2019-04-21T05:49:02.694Z,13.90
2019-04-21T05:50:01.007Z,14.70
2019-04-21T05:51:00.162Z,14.30
2019-04-21T05:52:01.479Z,16.00
2019-04-21T05:52:54.762Z,14.30
2019-04-21T05:54:10.839Z,15.40
2019-04-21T05:55:00.866Z,14.50
2019-04-21T05:56:05.021Z,14.10
2019-04-21T05:57:01.103Z,15.20
2019-04-21T05:58:02.577Z,14.00
2019-04-21T05:59:02.148Z,15.90
2019-04-21T05:59:59.149Z,14.20
2019-04-21T06:01:16.655Z,15.30
2019-04-21T06:02:14.024Z,14.30
2019-04-21T06:03:05.671Z,15.30
2019-04-21T06:04:07.606Z,14.50
2019-04-21T06:05:15.785Z,14.40
2019-04-21T06:06:10.398Z,15.30
2019-04-21T06:07:06.024Z,15.20
2019-04-21T06:08:00.411Z,16.60
2019-04-21T06:08:58.403Z,17.50
2019-04-21T06:10:16.929Z,17.80
2019-04-21T06:11:02.306Z,17.20
2019-04-21T06:12:05.881Z,18.00
2019-04-21T06:13:06.061Z,17.40
2019-04-21T06:14:21.739Z,17.60
2019-04-21T06:15:01.023Z,17.50
2019-04-21T06:16:03.536Z,18.60
2019-04-21T06:17:04.570Z,17.70
2019-04-21T06:18:07.919Z,17.80
2019-04-21T06:19:23.982Z,17.90
2019-04-21T06:20:00.272Z,19.10
2019-04-21T06:21:07.226Z,18.50
2019-04-21T06:22:06.288Z,18.40
2019-04-21T06:23:04.808Z,19.20
2019-04-21T06:24:06.881Z,19.10
2019-04-21T06:25:33.845Z,19.40
2019-04-21T06:26:18.056Z,19.10
2019-04-21T06:27:22.720Z,17.90
2019-04-21T06:28:04.719Z,18.90
2019-04-21T06:29:04.243Z,18.20
2019-04-21T06:30:00.163Z,18.20
2019-04-21T06:31:30.276Z,20.10
2019-04-21T06:32:21.904Z,19.70
2019-04-21T06:32:59.438Z,20.70
2019-04-21T06:34:06.736Z,21.90
2019-04-21T06:37:07.906Z,23.40
2019-04-21T06:38:05.703Z,24.00
2019-04-21T06:39:15.586Z,23.90
2019-04-21T06:40:16.924Z,25.60
2019-04-21T06:41:07.469Z,25.00
2019-04-21T06:41:58.839Z,25.00
2019-04-21T06:43:16.167Z,24.70
2019-04-21T06:44:09.461Z,24.40
2019-04-21T06:45:07.261Z,23.40
2019-04-21T06:45:58.948Z,24.60
2019-04-21T06:47:13.900Z,23.90
2019-04-21T06:48:04.501Z,23.20
2019-04-21T06:49:02.865Z,22.80
2019-04-21T06:50:00.467Z,24.90
2019-04-21T06:51:08.961Z,23.60
2019-04-21T06:52:07.314Z,23.50
2019-04-21T06:53:11.945Z,25.00
2019-04-21T06:54:05.351Z,22.90
2019-04-21T06:56:04.614Z,24.50
2019-04-21T06:56:58.461Z,23.40
2019-04-21T06:57:58.176Z,25.20
2019-04-21T06:59:01.261Z,25.30
2019-04-21T07:00:02.895Z,23.40
2019-04-21T07:01:03.889Z,23.60
2019-04-21T07:03:08.326Z,23.20
2019-04-21T07:04:13.364Z,25.40
2019-04-21T07:05:07.821Z,24.90
2019-04-21T07:07:00.483Z,24.60
2019-04-21T07:08:17.036Z,24.90
2019-04-21T07:09:12.206Z,25.40
2019-04-21T07:10:09.128Z,25.70
2019-04-21T07:11:04.017Z,24.00
2019-04-21T07:11:59.960Z,25.10
2019-04-21T07:12:57.594Z,23.80
2019-04-21T07:14:19.377Z,24.40
2019-04-21T07:15:06.597Z,25.10
2019-04-21T07:16:04.797Z,24.50
2019-04-21T07:17:08.104Z,24.70
2019-04-21T07:18:04.611Z,23.70
2019-04-21T07:19:07.128Z,24.30
2019-04-21T07:21:00.188Z,23.90
2019-04-21T07:22:03.061Z,23.70
2019-04-21T07:23:05.127Z,24.00
2019-04-21T07:24:05.596Z,23.50
2019-04-21T07:25:03.038Z,23.80
2019-04-21T07:26:04.469Z,22.30
2019-04-21T07:27:04.205Z,22.00
2019-04-21T07:28:19.250Z,23.30
2019-04-21T07:29:07.870Z,21.40
2019-04-21T07:30:04.960Z,22.10
2019-04-21T07:31:03.735Z,22.00
2019-04-21T07:32:04.344Z,23.10
2019-04-21T07:34:21.662Z,21.90
2019-04-21T07:35:03.914Z,21.20
2019-04-21T07:36:05.030Z,20.50
2019-04-21T07:37:00.937Z,21.20
2019-04-21T07:37:59.081Z,21.70
2019-04-21T07:38:56.877Z,20.40
2019-04-21T07:39:56.016Z,21.80
2019-04-21T07:40:53.985Z,21.20
2019-04-21T07:41:53.874Z,22.30
2019-04-21T07:42:55.689Z,20.40
2019-04-21T07:43:51.037Z,20.10
2019-04-21T07:44:52.358Z,20.80
2019-04-21T07:45:52.473Z,21.40
2019-04-21T07:46:54.016Z,20.50
2019-04-21T07:48:08.265Z,20.60
2019-04-21T07:49:01.632Z,20.20
2019-04-21T07:50:00.958Z,20.60
2019-04-21T07:50:57.842Z,20.40
2019-04-21T07:52:05.651Z,21.10
2019-04-21T07:54:01.841Z,21.10
2019-04-21T07:55:12.916Z,20.50
2019-04-21T07:55:41.107Z,20.70
2019-04-21T07:56:44.206Z,20.70
2019-04-21T07:57:55.700Z,20.30
2019-04-21T07:59:03.842Z,20.10
2019-04-21T08:02:20.349Z,19.80
2019-04-21T08:03:05.850Z,18.30
2019-04-21T08:04:03.929Z,17.90
2019-04-21T08:05:07.453Z,18.10
2019-04-21T08:06:03.664Z,19.40
2019-04-21T08:07:02.807Z,19.30
2019-04-21T08:09:01.069Z,19.80
2019-04-21T08:10:00.066Z,19.40
2019-04-21T08:10:57.062Z,18.90
2019-04-21T08:11:51.849Z,20.20
2019-04-21T08:12:58.309Z,20.20
2019-04-21T08:13:57.954Z,18.90
2019-04-21T08:15:01.261Z,19.90
2019-04-21T08:15:57.698Z,19.20
2019-04-21T08:17:03.084Z,19.10
2019-04-21T08:18:03.712Z,19.10
2019-04-21T08:18:59.552Z,18.70
2019-04-21T08:19:53.649Z,19.10
2019-04-21T08:21:00.724Z,18.40
2019-04-21T08:22:08.178Z,18.80
2019-04-21T08:22:58.918Z,17.90
2019-04-21T08:23:54.204Z,17.80
2019-04-21T08:24:59.481Z,18.30
2019-04-21T08:27:06.270Z,18.70
2019-04-21T08:27:59.868Z,19.40
2019-04-21T08:29:04.358Z,18.10
2019-04-21T08:29:58.284Z,18.10
2019-04-21T08:31:06.550Z,18.30
2019-04-21T08:32:03.160Z,18.10
2019-04-21T08:34:00.713Z,17.40
2019-04-21T08:35:35.802Z,17.50
2019-04-21T08:36:11.269Z,17.70
2019-04-21T08:36:57.232Z,17.90
2019-04-21T08:37:57.407Z,17.80
2019-04-21T08:39:01.073Z,17.70
2019-04-21T08:40:04.962Z,17.60
2019-04-21T08:41:03.636Z,18.60
2019-04-21T08:41:55.989Z,17.30
2019-04-21T08:42:55.247Z,17.90
2019-04-21T08:43:57.484Z,17.00
2019-04-21T08:45:05.999Z,16.30
2019-04-21T08:46:01.551Z,17.20
2019-04-21T08:46:58.794Z,15.70
2019-04-21T08:48:00.315Z,15.20
2019-04-21T08:49:02.614Z,16.60
2019-04-21T08:50:01.597Z,17.70
2019-04-21T08:51:06.342Z,16.40
2019-04-21T08:52:06.766Z,15.50
2019-04-21T08:54:04.198Z,18.30
2019-04-21T08:54:57.018Z,15.90
2019-04-21T08:56:04.362Z,16.10
2019-04-21T08:57:06.386Z,16.90
2019-04-21T08:58:10.982Z,16.80
2019-04-21T08:59:04.075Z,16.80
2019-04-21T09:00:01.593Z,17.70
2019-04-21T09:01:00.895Z,17.40
2019-04-21T09:02:18.171Z,17.20
2019-04-21T09:03:02.398Z,17.00
2019-04-21T09:04:59.225Z,16.70
2019-04-21T09:05:57.104Z,17.00
2019-04-21T09:07:05.333Z,17.30
2019-04-21T09:07:59.826Z,17.40
2019-04-21T09:08:58.225Z,17.40
2019-04-21T09:09:57.769Z,17.30
2019-04-21T09:10:59.586Z,18.20
2019-04-21T09:12:01.348Z,18.10
2019-04-21T09:12:53.117Z,16.90
2019-04-21T09:13:54.414Z,17.10
2019-04-21T09:14:54.213Z,18.10
2019-04-21T09:15:52.500Z,18.10
2019-04-21T09:16:53.721Z,17.80
2019-04-21T09:17:48.948Z,18.50
2019-04-21T09:18:52.758Z,17.70
2019-04-21T09:19:57.928Z,19.70
2019-04-21T09:20:59.996Z,18.00
2019-04-21T09:21:54.565Z,17.80
2019-04-21T09:22:54.235Z,17.40
2019-04-21T09:23:58.914Z,17.70
2019-04-21T09:25:00.266Z,18.70
2019-04-21T09:25:57.403Z,18.00
2019-04-21T09:26:57.313Z,18.90
2019-04-21T09:27:55.023Z,17.20
2019-04-21T09:28:48.026Z,17.90
2019-04-21T09:29:44.720Z,18.20
2019-04-21T09:30:43.437Z,18.10
2019-04-21T09:31:41.810Z,19.50
2019-04-21T09:32:38.595Z,18.60
2019-04-21T09:33:44.768Z,18.40
2019-04-21T09:34:43.483Z,16.80
2019-04-21T09:35:40.665Z,17.80
2019-04-21T09:36:45.944Z,17.70
2019-04-21T09:37:47.357Z,16.10
2019-04-21T09:38:41.875Z,17.70
2019-04-21T09:39:40.997Z,18.20
2019-04-21T09:40:43.927Z,17.50
2019-04-21T09:41:39.485Z,17.00
2019-04-21T09:42:44.302Z,17.50
2019-04-21T09:43:43.597Z,18.60
2019-04-21T09:44:42.146Z,17.00
2019-04-21T09:45:37.793Z,16.70
2019-04-21T09:46:45.319Z,17.10
2019-04-21T09:47:45.057Z,16.50
2019-04-21T09:48:49.847Z,16.60
2019-04-21T09:49:39.531Z,15.90
2019-04-21T09:50:38.293Z,16.60
2019-04-21T09:51:37.170Z,15.60
2019-04-21T09:52:45.165Z,16.70
2019-04-21T09:53:41.117Z,15.20
2019-04-21T09:54:48.165Z,14.60
2019-04-21T09:55:46.370Z,14.90
2019-04-21T09:56:46.584Z,16.60
2019-04-21T09:57:44.812Z,16.00
2019-04-21T09:58:42.417Z,15.90
2019-04-21T09:59:40.677Z,15.50
2019-04-21T10:00:46.454Z,15.80
2019-04-21T10:01:50.323Z,13.80
2019-04-21T10:02:49.810Z,14.10
2019-04-21T10:03:44.225Z,16.20
2019-04-21T10:04:38.021Z,14.40
2019-04-21T10:05:36.511Z,14.30
2019-04-21T10:06:37.315Z,12.70
2019-04-21T10:07:41.676Z,13.10
2019-04-21T10:08:38.556Z,12.20
2019-04-21T10:09:37.578Z,12.70
2019-04-21T10:10:36.526Z,12.10
2019-04-21T10:11:37.519Z,11.80
2019-04-21T10:12:37.342Z,11.60
2019-04-21T10:13:36.445Z,12.10
2019-04-21T10:14:36.611Z,12.00
2019-04-21T10:15:37.542Z,11.60
2019-04-21T10:16:36.488Z,11.70
2019-04-21T10:17:37.479Z,12.00
2019-04-21T10:18:36.481Z,11.80
2019-04-21T10:19:36.355Z,12.70
2019-04-21T10:20:36.412Z,12.60
2019-04-21T10:21:36.339Z,12.00
2019-04-21T10:22:37.226Z,11.80
2019-04-21T10:23:36.348Z,12.20
2019-04-21T10:24:36.343Z,12.40
2019-04-21T10:25:36.813Z,12.80
2019-04-21T10:26:37.485Z,12.40
2019-04-21T10:27:36.990Z,13.40
2019-04-21T10:28:37.264Z,12.80
2019-04-21T10:29:41.476Z,13.50
2019-04-21T10:30:38.509Z,13.50
2019-04-21T10:31:36.793Z,12.40
2019-04-21T10:32:36.455Z,12.90
2019-04-21T10:33:36.735Z,12.40
2019-04-21T10:34:37.138Z,12.20
2019-04-21T10:35:37.048Z,11.40
2019-04-21T10:36:37.219Z,12.30
2019-04-21T10:37:47.315Z,12.00
2019-04-21T10:38:44.275Z,13.40
2019-04-21T10:39:37.792Z,11.90
2019-04-21T10:40:37.374Z,11.80
2019-04-21T10:41:37.252Z,12.40
2019-04-21T10:42:37.270Z,12.40
2019-04-21T10:43:37.222Z,13.40
2019-04-21T10:44:36.856Z,12.10
2019-04-21T10:45:36.961Z,11.40
2019-04-21T10:46:36.913Z,12.10
2019-04-21T10:47:36.842Z,12.00
2019-04-21T10:48:37.870Z,12.20
2019-04-21T10:49:36.879Z,12.20
2019-04-21T10:50:37.047Z,12.60
2019-04-21T10:51:37.003Z,12.10
2019-04-21T10:52:37.301Z,12.80
2019-04-21T10:53:36.800Z,12.90
2019-04-21T10:55:01.298Z,11.70
2019-04-21T10:55:50.557Z,11.90
2019-04-21T10:56:41.757Z,12.10
2019-04-21T10:57:38.015Z,12.40
2019-04-21T10:58:36.308Z,12.70
2019-04-21T10:59:37.165Z,12.30
2019-04-21T11:00:36.447Z,12.40
2019-04-21T11:01:36.886Z,12.10
2019-04-21T11:02:36.857Z,12.40
2019-04-21T11:03:36.963Z,12.70
2019-04-21T11:04:38.550Z,12.60
2019-04-21T11:05:36.768Z,12.20
2019-04-21T11:06:36.853Z,12.80
2019-04-21T11:07:52.238Z,13.30
2019-04-21T11:08:41.494Z,11.20
2019-04-21T11:09:38.003Z,12.60
2019-04-21T11:10:36.053Z,11.60
2019-04-21T11:11:35.783Z,11.80
2019-04-21T11:12:37.751Z,12.30
2019-04-21T11:13:36.936Z,12.10
2019-04-21T11:14:35.780Z,13.40
2019-04-21T11:15:36.971Z,14.30
2019-04-21T11:16:37.119Z,10.90
2019-04-21T11:17:36.452Z,10.80
2019-04-21T11:18:35.978Z,11.50
2019-04-21T11:19:36.783Z,10.40
2019-04-21T11:20:35.689Z,10.70
2019-04-21T11:21:36.692Z,10.60
2019-04-21T11:22:36.920Z,10.60
2019-04-21T11:23:35.677Z,10.00
2019-04-21T11:24:36.732Z,10.30
2019-04-21T11:25:35.897Z,9.90
2019-04-21T11:26:35.959Z,10.30
2019-04-21T11:27:35.618Z,10.80
2019-04-21T11:28:36.763Z,10.40
2019-04-21T11:29:35.588Z,10.80
2019-04-21T11:30:35.880Z,10.10
2019-04-21T11:31:36.870Z,11.20
2019-04-21T11:32:36.989Z,11.60
2019-04-21T11:33:35.710Z,11.10
2019-04-21T11:34:36.692Z,10.50
2019-04-21T11:35:35.521Z,9.90
2019-04-21T11:36:35.513Z,9.80
2019-04-21T11:37:35.521Z,10.00
2019-04-21T11:38:51.340Z,10.60
2019-04-21T11:39:46.016Z,11.30
2019-04-21T11:40:37.961Z,13.30
2019-04-21T11:41:35.979Z,10.80
2019-04-21T11:42:35.651Z,10.70
2019-04-21T11:43:35.434Z,10.80
2019-04-21T11:44:35.439Z,11.40
2019-04-21T11:45:36.659Z,10.00
2019-04-21T11:46:36.317Z,10.50
2019-04-21T11:47:36.403Z,10.80
2019-04-21T11:48:36.532Z,12.30
2019-04-21T11:49:35.393Z,11.90
2019-04-21T11:50:35.362Z,12.10
2019-04-21T11:51:35.367Z,12.00
2019-04-21T11:52:36.825Z,12.80
2019-04-21T11:53:35.350Z,12.00
2019-04-21T11:54:35.325Z,12.50
2019-04-21T11:55:39.778Z,11.50
2019-04-21T11:56:37.007Z,10.60
2019-04-21T11:57:40.235Z,10.60
2019-04-21T11:58:36.294Z,10.30
2019-04-21T11:59:35.619Z,8.90
2019-04-21T12:00:35.826Z,10.00
2019-04-21T12:01:35.959Z,11.00
2019-04-21T12:02:35.345Z,11.10
2019-04-21T12:03:35.797Z,12.40
2019-04-21T12:04:35.742Z,10.00
2019-04-21T12:05:35.319Z,10.40
2019-04-21T12:06:41.578Z,10.90
2019-04-21T12:07:37.507Z,11.10
2019-04-21T12:08:42.307Z,13.50
2019-04-21T12:09:37.532Z,12.40
2019-04-21T12:10:35.524Z,12.40
2019-04-21T12:11:35.666Z,11.20
2019-04-21T12:12:35.145Z,10.60
2019-04-21T12:13:36.217Z,10.00
2019-04-21T12:14:36.304Z,10.80
2019-04-21T12:15:35.085Z,11.20
2019-04-21T12:16:35.252Z,11.70
2019-04-21T12:17:36.155Z,11.60
2019-04-21T12:18:35.077Z,11.10
2019-04-21T12:19:35.070Z,12.00
2019-04-21T12:20:35.548Z,9.70
2019-04-21T12:21:49.151Z,11.30
2019-04-21T12:22:37.313Z,10.70
2019-04-21T12:23:36.415Z,11.30
2019-04-21T12:24:36.810Z,10.80
2019-04-21T12:25:34.976Z,11.10
2019-04-21T12:26:35.966Z,11.90
2019-04-21T12:27:36.124Z,11.00
2019-04-21T12:28:34.943Z,11.40
2019-04-21T12:29:35.582Z,11.40
2019-04-21T12:30:35.726Z,12.30
2019-04-21T12:31:35.868Z,11.50
2019-04-21T12:32:36.025Z,10.80
2019-04-21T12:33:36.233Z,9.70
2019-04-21T12:34:35.962Z,10.10
2019-04-21T12:35:35.575Z,10.70
2019-04-21T12:36:35.806Z,10.60
2019-04-21T12:37:35.119Z,9.90
2019-04-21T12:38:42.557Z,11.20
2019-04-21T12:39:36.897Z,10.70
2019-04-21T12:40:34.835Z,10.10
2019-04-21T12:41:36.204Z,10.60
2019-04-21T12:42:37.621Z,10.50
2019-04-21T12:43:34.912Z,10.60
2019-04-21T12:44:34.767Z,10.60
2019-04-21T12:45:35.943Z,10.10
2019-04-21T12:46:35.918Z,9.70
2019-04-21T12:47:34.735Z,10.80
2019-04-21T12:48:35.833Z,9.60
2019-04-21T12:49:35.901Z,10.60
2019-04-21T12:50:35.942Z,9.90
2019-04-21T12:51:35.613Z,9.80
2019-04-21T12:52:35.714Z,8.60
2019-04-21T12:53:35.905Z,9.20
2019-04-21T12:54:35.486Z,9.00
2019-04-21T12:55:37.385Z,11.90
2019-04-21T12:56:35.798Z,9.70
2019-04-21T12:57:35.133Z,9.70
2019-04-21T12:58:35.264Z,10.80
2019-04-21T12:59:36.304Z,9.80
2019-04-21T13:00:34.587Z,11.00
2019-04-21T13:01:34.988Z,11.00
2019-04-21T13:02:35.769Z,13.00
2019-04-21T13:03:34.557Z,9.60
2019-04-21T13:04:35.781Z,9.80
2019-04-21T13:05:35.771Z,8.90
2019-04-21T13:06:34.529Z,10.40
2019-04-21T13:07:35.419Z,9.30
2019-04-21T13:08:48.428Z,9.70
2019-04-21T13:09:36.111Z,10.10
2019-04-21T13:10:34.505Z,9.00
2019-04-21T13:11:35.077Z,9.20
2019-04-21T13:12:35.250Z,9.50
2019-04-21T13:13:35.632Z,9.10
2019-04-21T13:14:35.770Z,9.80
2019-04-21T13:15:35.575Z,11.20
2019-04-21T13:16:34.413Z,10.50
2019-04-21T13:17:35.365Z,11.00
2019-04-21T13:18:35.329Z,10.90
2019-04-21T13:19:35.583Z,9.90
2019-04-21T13:20:34.370Z,10.20
2019-04-21T13:21:34.391Z,10.20
2019-04-21T13:22:34.376Z,10.80
2019-04-21T13:23:34.913Z,11.20
2019-04-21T13:24:34.323Z,8.90
2019-04-21T13:25:34.322Z,11.50
2019-04-21T13:26:43.068Z,8.80
2019-04-21T13:27:36.659Z,11.20
2019-04-21T13:28:34.649Z,10.30
2019-04-21T13:29:34.493Z,9.70
2019-04-21T13:30:34.262Z,11.10
2019-04-21T13:31:34.402Z,10.20
2019-04-21T13:32:35.248Z,10.50
2019-04-21T13:33:35.222Z,9.60
2019-04-21T13:34:34.212Z,10.60
2019-04-21T13:35:35.212Z,9.80
2019-04-21T13:36:34.192Z,9.30
2019-04-21T13:37:35.334Z,10.70
2019-04-21T13:38:42.166Z,10.90
2019-04-21T13:40:02.277Z,9.60
2019-04-21T13:40:52.968Z,10.70
2019-04-21T13:41:47.517Z,10.30
2019-04-21T13:42:40.729Z,9.60
2019-04-21T13:43:35.123Z,9.40
2019-04-21T13:44:34.951Z,9.90
2019-04-21T13:45:34.400Z,9.60
2019-04-21T13:46:34.562Z,9.60
2019-04-21T13:47:34.686Z,10.20
2019-04-21T13:48:34.768Z,9.40
2019-04-21T13:49:35.121Z,9.60
2019-04-21T13:50:35.269Z,11.00
2019-04-21T13:51:34.181Z,10.40
2019-04-21T13:52:34.046Z,10.40
2019-04-21T13:53:34.905Z,9.70
2019-04-21T13:54:34.020Z,9.20
2019-04-21T13:55:36.748Z,9.30
2019-04-21T13:56:34.438Z,10.40
2019-04-21T13:57:34.643Z,11.30